Ashley, Wisconsin
Current Conditions -  °F | °C
As of 8:45 PM on Wednesday 22 Oct 2014 (Local Time) from KCWA Reporting Station
Clear Clear  
Wind Chill: 39°   Ceiling: Unl
Heat Index: 43°   Visibility: 10mi
Dew Point: 37°   Wind: 6mph
Humidity: 81%   Direction: 120°ESE
Pressure: 30.2"   Gusts: NA
Location:  44.7605°N, 89.5918°W
Report Text: KCWA 230145Z 12005KT 10SM SKC 06/03 A3020
Loading
Personal Weather Stations






























Interactive Weather Map New forecast layout! Learn more

10-Day Weather Forecast

Advertisements
Track Severe Weather on mobile